Terminal Aerodrome Forecast
Issued by NWS

Home | Current Version | Previous Version | Text Only | Print | Product List | Glossary On
Versions: 1 2 3 4 5 6 7 8 9 10 11 12 13
000
FTUS45 KABQ 261100
TAFAEG
TAF
KAEG 261133Z 2612/2712 VRB05KT P6SM FEW140
     FM262100 33012KT P6SM BKN090
     FM270300 35009KT P6SM SCT140=

USA.gov is the U.S. government's official web portal to all federal, state and local government web resources and services.